createdAt,value
2017-06-18T00:01:24.732Z,68.90
2017-06-18T00:03:52.317Z,70.40
2017-06-18T00:06:19.848Z,72.20
2017-06-18T00:08:47.391Z,66.40
2017-06-18T00:11:14.981Z,70.20
2017-06-18T00:13:42.520Z,71.30
2017-06-18T00:16:10.059Z,71.80
2017-06-18T00:18:37.631Z,71.30
2017-06-18T00:21:05.152Z,70.50
2017-06-18T00:23:32.891Z,70.90
2017-06-18T00:26:00.447Z,71.30
2017-06-18T00:28:27.963Z,71.70
2017-06-18T00:30:56.248Z,71.50
2017-06-18T00:33:23.807Z,71.30
2017-06-18T00:35:51.329Z,70.40
2017-06-18T00:38:18.860Z,69.20
2017-06-18T00:40:46.424Z,70.90
2017-06-18T00:43:13.931Z,70.70
2017-06-18T00:45:41.446Z,70.40
2017-06-18T00:48:09.040Z,71.30
2017-06-18T00:50:36.605Z,70.00
2017-06-18T00:53:04.883Z,71.20
2017-06-18T00:55:33.266Z,70.40
2017-06-18T00:58:01.551Z,71.00
2017-06-18T01:00:29.828Z,71.30
2017-06-18T01:02:58.180Z,72.20
2017-06-18T01:05:25.742Z,72.20
2017-06-18T01:07:53.258Z,72.20
2017-06-18T01:10:20.896Z,72.30
2017-06-18T01:12:48.413Z,72.10
2017-06-18T01:15:15.921Z,72.20
2017-06-18T01:17:43.495Z,71.30
2017-06-18T01:20:11.022Z,71.40
2017-06-18T01:22:39.309Z,72.50
2017-06-18T01:25:07.644Z,71.90
2017-06-18T01:27:35.174Z,71.80
2017-06-18T01:30:02.745Z,69.70
2017-06-18T01:32:30.344Z,71.60
2017-06-18T01:34:57.859Z,72.40
2017-06-18T01:37:25.371Z,72.80
2017-06-18T01:39:52.927Z,73.00
2017-06-18T01:42:20.458Z,73.30
2017-06-18T01:44:47.987Z,71.90
2017-06-18T01:47:15.551Z,73.20
2017-06-18T01:49:43.080Z,73.90
2017-06-18T01:52:11.376Z,72.80
2017-06-18T01:54:38.959Z,72.60
2017-06-18T01:57:06.480Z,73.50
2017-06-18T01:59:34.763Z,74.50
2017-06-18T02:02:03.084Z,74.50
2017-06-18T02:04:30.681Z,74.30
2017-06-18T02:06:58.197Z,74.20
2017-06-18T02:09:25.771Z,74.30
2017-06-18T02:11:53.284Z,72.30
2017-06-18T02:14:20.799Z,72.80
2017-06-18T02:16:48.483Z,73.30
2017-06-18T02:19:15.997Z,72.70
2017-06-18T02:21:43.545Z,72.80
2017-06-18T02:24:11.114Z,73.00
2017-06-18T02:26:38.628Z,72.10
2017-06-18T02:29:06.139Z,72.60
2017-06-18T02:31:33.695Z,73.10
2017-06-18T02:34:01.212Z,73.70
2017-06-18T02:36:29.496Z,72.70
2017-06-18T02:38:57.836Z,73.80
2017-06-18T02:41:25.353Z,73.60
2017-06-18T02:43:52.888Z,71.10
2017-06-18T02:46:21.524Z,74.00
2017-06-18T02:48:49.040Z,73.80
2017-06-18T02:51:17.317Z,71.20
2017-06-18T02:53:45.644Z,72.60
2017-06-18T02:56:13.163Z,72.30
2017-06-18T02:58:41.441Z,72.80
2017-06-18T03:01:09.757Z,73.50
2017-06-18T03:03:37.285Z,73.40
2017-06-18T03:06:04.796Z,72.10
2017-06-18T03:08:32.352Z,71.80
2017-06-18T03:10:59.873Z,72.30
2017-06-18T03:13:27.387Z,74.20
2017-06-18T03:15:55.036Z,73.90
2017-06-18T03:18:22.572Z,73.20
2017-06-18T03:20:50.089Z,73.50
2017-06-18T03:23:24.171Z,72.60
2017-06-18T03:25:51.684Z,72.50
2017-06-18T03:28:19.217Z,73.40
2017-06-18T03:30:47.536Z,73.20
2017-06-18T03:33:15.060Z,73.20
2017-06-18T03:35:43.344Z,73.40
2017-06-18T03:38:10.924Z,73.30
2017-06-18T03:40:38.457Z,73.10
2017-06-18T03:43:43.560Z,72.70
2017-06-18T03:46:11.059Z,73.00
2017-06-18T03:48:39.332Z,73.50
2017-06-18T03:51:07.700Z,74.70
2017-06-18T03:53:35.227Z,74.70
2017-06-18T03:56:02.761Z,74.50
2017-06-18T03:58:30.320Z,74.20
2017-06-18T04:00:57.832Z,73.40
2017-06-18T04:03:25.348Z,73.80
2017-06-18T04:05:52.903Z,73.30
2017-06-18T04:08:20.444Z,73.40
2017-06-18T04:10:47.968Z,73.60
2017-06-18T04:13:15.529Z,73.30
2017-06-18T04:15:43.038Z,73.30
2017-06-18T04:18:10.559Z,73.20
2017-06-18T04:20:38.111Z,74.50
2017-06-18T04:23:05.710Z,73.70
2017-06-18T04:25:33.224Z,75.30
2017-06-18T04:28:00.815Z,74.80
2017-06-18T04:30:29.101Z,74.80
2017-06-18T04:32:57.455Z,73.80
2017-06-18T04:35:25.048Z,73.70
2017-06-18T04:37:52.564Z,71.90
2017-06-18T04:40:20.078Z,71.30
2017-06-18T04:42:47.651Z,70.90
2017-06-18T04:45:15.187Z,71.30
2017-06-18T04:47:42.759Z,70.40
2017-06-18T04:50:10.316Z,71.20
2017-06-18T04:52:37.832Z,71.70
2017-06-18T04:55:05.344Z,70.70
2017-06-18T04:57:32.952Z,69.40
2017-06-18T05:00:00.467Z,70.60
2017-06-18T05:02:27.987Z,71.70
2017-06-18T05:04:56.309Z,72.80
2017-06-18T05:07:23.815Z,72.20
2017-06-18T05:09:51.331Z,71.70
2017-06-18T05:12:18.912Z,72.40
2017-06-18T05:14:46.432Z,71.20
2017-06-18T05:17:13.961Z,72.60
2017-06-18T05:19:41.781Z,71.30
2017-06-18T05:22:09.320Z,72.00
2017-06-18T05:24:36.848Z,70.90
2017-06-18T05:27:05.228Z,70.20
2017-06-18T05:29:32.749Z,69.50
2017-06-18T05:32:00.268Z,69.60
2017-06-18T05:34:27.828Z,69.70
2017-06-18T05:36:56.125Z,67.30
2017-06-18T05:39:23.632Z,67.90
2017-06-18T05:41:51.196Z,66.50
2017-06-18T05:44:18.702Z,66.10
2017-06-18T05:46:46.211Z,66.10
2017-06-18T05:49:13.803Z,65.80
2017-06-18T05:51:41.319Z,65.70
2017-06-18T05:54:08.838Z,66.20
2017-06-18T05:56:36.395Z,64.80
2017-06-18T05:59:03.907Z,66.20
2017-06-18T06:01:31.424Z,63.90
2017-06-18T06:03:59.014Z,63.50
2017-06-18T06:06:26.528Z,66.60
2017-06-18T06:08:54.034Z,65.10
2017-06-18T06:11:21.584Z,60.60
2017-06-18T06:13:49.119Z,61.70
2017-06-18T06:16:16.633Z,62.80
2017-06-18T06:18:44.188Z,62.20
2017-06-18T06:21:11.739Z,62.10
2017-06-18T06:23:39.247Z,60.10
2017-06-18T06:26:06.828Z,61.20
2017-06-18T06:28:34.414Z,59.30
2017-06-18T06:31:01.946Z,59.10
2017-06-18T06:33:29.512Z,59.10
2017-06-18T06:35:57.031Z,61.60
2017-06-18T06:38:25.316Z,59.60
2017-06-18T06:40:53.672Z,57.80
2017-06-18T06:43:21.185Z,57.70
2017-06-18T06:45:48.712Z,58.40
2017-06-18T06:48:17.329Z,59.40
2017-06-18T06:50:44.855Z,59.40
2017-06-18T06:53:13.134Z,58.30
2017-06-18T06:55:41.459Z,59.30
2017-06-18T06:58:08.972Z,59.30
2017-06-18T07:00:37.255Z,57.50
2017-06-18T07:03:04.841Z,57.50
2017-06-18T07:05:32.358Z,58.00
2017-06-18T07:08:00.646Z,58.40
2017-06-18T07:10:28.975Z,56.90
2017-06-18T07:12:56.494Z,56.80
2017-06-18T07:15:24.773Z,54.80
2017-06-18T07:17:52.327Z,54.70
2017-06-18T07:20:19.834Z,55.60
2017-06-18T07:22:47.353Z,57.20
2017-06-18T07:25:14.929Z,58.10
2017-06-18T07:27:42.448Z,58.40
2017-06-18T07:30:09.961Z,56.80
2017-06-18T07:32:37.517Z,56.80
2017-06-18T07:35:05.046Z,56.10
2017-06-18T07:37:33.327Z,52.70
2017-06-18T07:40:00.902Z,52.60
2017-06-18T07:42:29.362Z,53.00
2017-06-18T07:44:56.933Z,51.50
2017-06-18T07:47:24.531Z,50.80
2017-06-18T07:49:52.058Z,50.40
2017-06-18T07:52:19.603Z,47.80
2017-06-18T07:54:47.183Z,48.20
2017-06-18T07:57:14.710Z,50.00
2017-06-18T07:59:42.991Z,46.80
2017-06-18T08:02:11.315Z,49.20
2017-06-18T08:04:38.896Z,49.20
2017-06-18T08:07:06.479Z,47.50
2017-06-18T08:09:34.032Z,49.10
2017-06-18T08:12:01.548Z,46.30
2017-06-18T08:14:29.104Z,45.10
2017-06-18T08:16:56.664Z,43.50
2017-06-18T08:19:24.184Z,44.20
2017-06-18T08:21:51.739Z,45.60
2017-06-18T08:24:20.083Z,46.70
2017-06-18T08:26:47.596Z,46.70
2017-06-18T08:29:15.105Z,49.80
2017-06-18T08:31:42.724Z,49.10
2017-06-18T08:34:10.245Z,48.90
2017-06-18T08:36:37.769Z,49.10
2017-06-18T08:39:05.380Z,48.50
2017-06-18T08:41:34.432Z,44.70
2017-06-18T08:44:01.956Z,46.20
2017-06-18T08:46:29.507Z,48.10
2017-06-18T08:48:57.831Z,46.00
2017-06-18T08:51:25.348Z,46.00
2017-06-18T08:53:53.699Z,39.60
2017-06-18T08:56:21.219Z,39.40
2017-06-18T08:58:48.735Z,39.20
2017-06-18T09:01:16.287Z,43.30
2017-06-18T09:03:43.806Z,41.00
2017-06-18T09:06:11.324Z,40.90
2017-06-18T09:08:39.667Z,41.20
2017-06-18T09:11:07.172Z,41.20
2017-06-18T09:13:35.457Z,41.80
2017-06-18T09:16:03.028Z,41.70
2017-06-18T09:18:30.545Z,40.90
2017-06-18T09:20:58.093Z,40.20
2017-06-18T09:23:25.655Z,39.70
2017-06-18T09:25:53.172Z,38.50
2017-06-18T09:28:20.700Z,39.80
2017-06-18T09:30:49.031Z,42.60
2017-06-18T09:33:16.551Z,42.50
2017-06-18T09:35:44.067Z,38.90
2017-06-18T09:38:11.679Z,40.70
2017-06-18T09:40:39.254Z,43.80
2017-06-18T09:43:06.783Z,40.70
2017-06-18T09:45:35.123Z,40.30
2017-06-18T09:48:02.684Z,40.90
2017-06-18T09:50:30.225Z,37.20
2017-06-18T09:52:57.784Z,37.40
2017-06-18T09:55:25.300Z,36.50
2017-06-18T09:57:53.587Z,40.10
2017-06-18T10:00:21.940Z,40.90
2017-06-18T10:02:49.483Z,40.80
2017-06-18T10:05:17.002Z,38.50
2017-06-18T10:07:44.579Z,39.20
2017-06-18T10:10:12.103Z,43.40
2017-06-18T10:12:40.389Z,42.20
2017-06-18T10:15:07.956Z,42.10
2017-06-18T10:17:35.519Z,40.50
2017-06-18T10:20:03.036Z,37.40
2017-06-18T10:22:30.599Z,39.10
2017-06-18T10:24:58.117Z,37.30
2017-06-18T10:27:25.628Z,38.70
2017-06-18T10:29:53.959Z,40.80
2017-06-18T10:32:21.480Z,40.80
2017-06-18T10:34:49.032Z,40.70
2017-06-18T10:37:16.622Z,40.70
2017-06-18T10:39:44.164Z,42.40
2017-06-18T10:42:11.688Z,41.30
2017-06-18T10:44:39.247Z,37.90
2017-06-18T10:47:06.760Z,36.80
2017-06-18T10:49:34.269Z,39.50
2017-06-18T10:52:01.855Z,38.90
2017-06-18T10:54:29.368Z,40.00
2017-06-18T10:56:56.884Z,38.50
2017-06-18T10:59:24.468Z,35.40
2017-06-18T11:01:51.980Z,38.30
2017-06-18T11:04:19.516Z,38.60
2017-06-18T11:06:47.067Z,37.20
2017-06-18T11:09:14.648Z,38.60
2017-06-18T11:11:42.175Z,40.30
2017-06-18T11:14:09.736Z,35.10
2017-06-18T11:16:37.250Z,35.50
2017-06-18T11:19:04.760Z,36.80
2017-06-18T11:21:32.325Z,38.40
2017-06-18T11:23:59.844Z,39.10
2017-06-18T11:26:28.119Z,36.10
2017-06-18T11:28:56.444Z,34.40
2017-06-18T11:31:23.947Z,34.30
2017-06-18T11:33:52.236Z,37.50
2017-06-18T11:36:19.799Z,37.50
2017-06-18T11:38:47.311Z,35.50
2017-06-18T11:41:14.828Z,35.90
2017-06-18T11:43:42.420Z,38.70
2017-06-18T11:46:09.940Z,38.90
2017-06-18T11:48:37.480Z,38.30
2017-06-18T11:51:05.089Z,34.30
2017-06-18T11:53:32.600Z,37.70
2017-06-18T11:56:00.890Z,32.30
2017-06-18T11:58:29.292Z,32.80
2017-06-18T12:00:56.816Z,32.70
2017-06-18T12:03:24.336Z,33.80
2017-06-18T12:05:51.899Z,34.30
2017-06-18T12:08:19.420Z,34.70
2017-06-18T12:10:46.940Z,38.10
2017-06-18T12:13:14.507Z,36.80
2017-06-18T12:15:42.053Z,36.90
2017-06-18T12:18:09.752Z,33.70
2017-06-18T12:20:37.316Z,34.00
2017-06-18T12:23:04.832Z,33.80
2017-06-18T12:25:32.342Z,36.70
2017-06-18T12:27:59.910Z,35.20
2017-06-18T12:30:27.545Z,33.50
2017-06-18T12:32:55.119Z,32.80
2017-06-18T12:35:22.758Z,34.50
2017-06-18T12:37:50.284Z,34.70
2017-06-18T12:40:17.851Z,33.70
2017-06-18T12:42:45.408Z,34.90
2017-06-18T12:45:12.947Z,34.70
2017-06-18T12:47:40.618Z,34.90
2017-06-18T12:50:08.180Z,36.50
2017-06-18T12:52:35.699Z,36.60
2017-06-18T12:55:03.210Z,37.00
2017-06-18T12:57:30.799Z,36.90
2017-06-18T12:59:58.315Z,35.90
2017-06-18T13:02:25.839Z,37.70
2017-06-18T13:04:53.430Z,38.60
2017-06-18T13:07:20.963Z,37.00
2017-06-18T13:09:49.255Z,36.50
2017-06-18T13:12:16.832Z,36.50
2017-06-18T13:14:44.354Z,37.00
2017-06-18T13:17:12.631Z,37.60
2017-06-18T13:19:40.957Z,38.40
2017-06-18T13:22:08.477Z,37.80
2017-06-18T13:24:36.000Z,38.40
2017-06-18T13:27:03.580Z,37.30
2017-06-18T13:29:31.140Z,38.10
2017-06-18T13:31:58.656Z,37.30
2017-06-18T13:34:26.251Z,38.30
2017-06-18T13:36:53.761Z,38.60
2017-06-18T13:39:21.280Z,38.70
2017-06-18T13:41:48.837Z,36.30
2017-06-18T13:44:16.360Z,38.90
2017-06-18T13:46:43.880Z,38.80
2017-06-18T13:49:11.473Z,36.70
2017-06-18T13:51:38.983Z,39.40
2017-06-18T13:54:06.507Z,37.10
2017-06-18T13:56:34.087Z,36.50
2017-06-18T13:59:01.850Z,36.40
2017-06-18T14:01:29.380Z,37.20
2017-06-18T14:03:56.946Z,37.50
2017-06-18T14:06:24.475Z,38.30
2017-06-18T14:08:51.991Z,38.30
2017-06-18T14:11:19.596Z,37.40
2017-06-18T14:13:47.103Z,38.00
2017-06-18T14:16:14.624Z,37.00
2017-06-18T14:18:42.196Z,37.20
2017-06-18T14:21:09.719Z,38.30
2017-06-18T14:23:37.232Z,38.20
2017-06-18T14:26:04.792Z,38.10
2017-06-18T14:28:32.310Z,36.30
2017-06-18T14:31:00.600Z,40.40
2017-06-18T14:33:28.187Z,40.40
2017-06-18T14:35:55.709Z,39.60
2017-06-18T14:38:23.232Z,39.40
2017-06-18T14:40:50.791Z,39.40
2017-06-18T14:43:18.317Z,39.70
2017-06-18T14:45:45.831Z,38.50
2017-06-18T14:48:14.191Z,37.40
2017-06-18T14:50:41.703Z,37.30
2017-06-18T14:53:09.231Z,37.00
2017-06-18T14:55:37.556Z,38.40
2017-06-18T14:58:05.068Z,38.30
2017-06-18T15:00:33.364Z,39.10
2017-06-18T15:03:00.940Z,39.00
2017-06-18T15:05:28.452Z,40.40
2017-06-18T15:07:56.006Z,39.90
2017-06-18T15:10:23.570Z,40.20
2017-06-18T15:12:51.152Z,39.10
2017-06-18T15:15:19.450Z,41.10
2017-06-18T15:17:47.026Z,41.10
2017-06-18T15:20:14.559Z,39.90
2017-06-18T15:22:42.853Z,38.60
2017-06-18T15:25:10.446Z,38.50
2017-06-18T15:27:37.970Z,38.80
2017-06-18T15:30:05.508Z,39.50
2017-06-18T15:32:33.095Z,38.60
2017-06-18T15:35:00.612Z,38.80
2017-06-18T15:37:28.128Z,39.20
2017-06-18T15:39:55.687Z,38.40
2017-06-18T15:42:23.200Z,38.70
2017-06-18T15:44:50.733Z,38.90
2017-06-18T15:47:18.305Z,39.30
2017-06-18T15:49:45.824Z,39.40
2017-06-18T15:52:13.346Z,39.40
2017-06-18T15:54:41.667Z,39.90
2017-06-18T15:57:09.187Z,39.90
2017-06-18T15:59:37.481Z,39.20
2017-06-18T16:02:05.380Z,39.10
2017-06-18T16:04:32.919Z,39.70
2017-06-18T16:07:00.532Z,40.00
2017-06-18T16:09:28.146Z,40.30
2017-06-18T16:11:55.673Z,41.40
2017-06-18T16:14:23.955Z,39.90
2017-06-18T16:16:51.540Z,39.90
2017-06-18T16:19:19.066Z,40.10
2017-06-18T16:21:47.355Z,39.70
2017-06-18T16:24:14.911Z,39.60
2017-06-18T16:26:43.190Z,39.30
2017-06-18T16:29:11.475Z,40.70
2017-06-18T16:31:39.811Z,40.60
2017-06-18T16:34:07.321Z,40.10
2017-06-18T16:36:34.911Z,39.70
2017-06-18T16:39:02.467Z,39.60
2017-06-18T16:41:29.991Z,39.40
2017-06-18T16:43:58.270Z,40.30
2017-06-18T16:46:25.884Z,40.20
2017-06-18T16:48:53.409Z,40.30
2017-06-18T16:51:20.958Z,40.60
2017-06-18T16:53:48.511Z,40.40
2017-06-18T16:56:16.804Z,40.50
2017-06-18T16:58:44.319Z,40.40
2017-06-18T17:01:11.915Z,40.40
2017-06-18T17:03:39.437Z,39.60
2017-06-18T17:06:07.003Z,39.50
2017-06-18T17:08:34.560Z,39.90
2017-06-18T17:11:02.072Z,40.10
2017-06-18T17:13:29.588Z,40.60
2017-06-18T17:15:57.148Z,40.40
2017-06-18T17:18:24.665Z,41.10
2017-06-18T17:20:52.179Z,40.90
2017-06-18T17:23:20.507Z,40.50
2017-06-18T17:25:48.027Z,40.50
2017-06-18T17:28:16.476Z,40.20
2017-06-18T17:30:44.055Z,40.10
2017-06-18T17:33:11.568Z,40.10
2017-06-18T17:35:39.078Z,40.00
2017-06-18T17:38:06.651Z,40.60
2017-06-18T17:40:37.708Z,40.20
2017-06-18T17:43:05.302Z,40.50
2017-06-18T17:45:32.835Z,40.80
2017-06-18T17:48:00.344Z,40.60
2017-06-18T17:50:27.956Z,41.20
2017-06-18T17:52:55.465Z,40.60
2017-06-18T17:55:22.977Z,40.40
2017-06-18T17:57:50.523Z,40.40
2017-06-18T18:00:18.030Z,40.60
2017-06-18T18:02:45.548Z,40.40
2017-06-18T18:05:13.095Z,40.50
2017-06-18T18:07:40.646Z,40.50
2017-06-18T18:10:08.175Z,40.80
2017-06-18T18:12:35.771Z,41.30
2017-06-18T18:15:03.330Z,41.10
2017-06-18T18:17:30.850Z,41.20
2017-06-18T18:19:58.424Z,41.00
2017-06-18T18:22:25.945Z,41.10
2017-06-18T18:24:53.459Z,41.20
2017-06-18T18:27:21.047Z,41.50
2017-06-18T18:29:48.567Z,41.40
2017-06-18T18:32:16.066Z,41.80
2017-06-18T18:34:43.649Z,41.40
2017-06-18T18:37:11.171Z,41.60
2017-06-18T18:39:38.700Z,41.50
2017-06-18T18:42:06.269Z,41.80
2017-06-18T18:44:33.796Z,41.60
2017-06-18T18:47:01.311Z,41.90
2017-06-18T18:49:29.431Z,41.90
2017-06-18T18:51:56.953Z,42.30
2017-06-18T18:54:25.448Z,41.90
2017-06-18T18:56:53.021Z,41.80
2017-06-18T18:59:20.576Z,42.00
2017-06-18T19:01:48.104Z,42.00
2017-06-18T19:04:16.426Z,42.50
2017-06-18T19:06:43.944Z,42.40
2017-06-18T19:09:12.230Z,42.70
2017-06-18T19:11:39.786Z,42.50
2017-06-18T19:14:08.072Z,43.00
2017-06-18T19:16:35.679Z,43.00
2017-06-18T19:19:03.254Z,43.00
2017-06-18T19:21:30.777Z,43.10
2017-06-18T19:23:58.363Z,43.10
2017-06-18T19:26:25.912Z,43.40
2017-06-18T19:28:53.582Z,43.40
2017-06-18T19:31:21.093Z,43.50
2017-06-18T19:33:48.767Z,43.60
2017-06-18T19:36:16.285Z,43.80
2017-06-18T19:38:43.805Z,43.90
2017-06-18T19:41:11.581Z,43.90
2017-06-18T19:43:39.116Z,44.00
2017-06-18T19:46:06.715Z,44.10
2017-06-18T19:48:34.272Z,44.10
2017-06-18T19:51:01.905Z,44.30
2017-06-18T19:53:29.451Z,44.30
2017-06-18T19:55:57.012Z,44.30
2017-06-18T19:58:24.537Z,44.80
2017-06-18T20:00:52.849Z,44.70
2017-06-18T20:03:20.413Z,45.10
2017-06-18T20:05:47.931Z,44.80
2017-06-18T20:08:15.447Z,45.30
2017-06-18T20:10:42.999Z,45.10
2017-06-18T20:13:10.515Z,45.20
2017-06-18T20:15:38.027Z,45.20
2017-06-18T20:18:05.588Z,45.50
2017-06-18T20:20:33.127Z,45.50
2017-06-18T20:23:00.672Z,45.60
2017-06-18T20:25:28.992Z,45.90
2017-06-18T20:27:56.579Z,45.80
2017-06-18T20:30:24.089Z,46.10
2017-06-18T20:32:51.669Z,46.20
2017-06-18T20:35:19.178Z,46.60
2017-06-18T20:37:46.693Z,46.80
2017-06-18T20:40:24.591Z,46.70
2017-06-18T20:42:52.104Z,46.70
2017-06-18T20:45:20.424Z,46.80
2017-06-18T20:47:47.995Z,46.80
2017-06-18T20:50:15.529Z,47.00
2017-06-18T20:52:44.440Z,47.40
2017-06-18T20:55:12.513Z,47.60
2017-06-18T20:57:40.071Z,47.80
2017-06-18T21:00:07.599Z,47.70
2017-06-18T21:02:35.928Z,47.80
2017-06-18T21:05:03.448Z,47.80
2017-06-18T21:07:30.968Z,47.90
2017-06-18T21:09:58.901Z,48.30
2017-06-18T21:12:26.445Z,50.00
2017-06-18T21:14:53.963Z,51.10
2017-06-18T21:17:21.536Z,50.10
2017-06-18T21:19:50.419Z,50.60
2017-06-18T21:22:17.977Z,52.70
2017-06-18T21:24:45.545Z,51.40
2017-06-18T21:27:13.826Z,52.70
2017-06-18T21:29:41.373Z,52.90
2017-06-18T21:32:09.110Z,53.80
2017-06-18T21:34:36.636Z,54.10
2017-06-18T21:37:04.163Z,54.30
2017-06-18T21:39:31.724Z,54.20
2017-06-18T21:41:59.228Z,54.40
2017-06-18T21:44:26.746Z,54.60
2017-06-18T21:46:54.343Z,54.90
2017-06-18T21:49:22.123Z,55.60
2017-06-18T21:51:49.643Z,55.30
2017-06-18T21:54:18.027Z,56.30
2017-06-18T21:56:49.637Z,56.20
2017-06-18T21:59:17.219Z,56.30
2017-06-18T22:01:44.767Z,57.50
2017-06-18T22:04:14.119Z,55.80
2017-06-18T22:06:42.234Z,56.10
2017-06-18T22:09:09.801Z,56.10
2017-06-18T22:11:37.320Z,55.10
2017-06-18T22:14:04.880Z,56.20
2017-06-18T22:16:32.485Z,56.90
2017-06-18T22:19:00.060Z,56.50
2017-06-18T22:21:27.622Z,56.40
2017-06-18T22:23:55.644Z,57.40
2017-06-18T22:26:23.265Z,56.50
2017-06-18T22:28:50.865Z,58.00
2017-06-18T22:31:18.380Z,58.40
2017-06-18T22:33:45.918Z,58.00
2017-06-18T22:36:13.556Z,59.00
2017-06-18T22:38:41.071Z,56.10
2017-06-18T22:41:08.585Z,56.30
2017-06-18T22:43:36.145Z,57.80
2017-06-18T22:46:03.753Z,57.50
2017-06-18T22:48:31.326Z,56.00
2017-06-18T22:50:58.981Z,55.00
2017-06-18T22:53:27.328Z,55.40
2017-06-18T22:55:55.093Z,55.40
2017-06-18T22:58:22.934Z,57.30
2017-06-18T23:00:51.106Z,58.20
2017-06-18T23:03:18.615Z,56.50
2017-06-18T23:05:46.239Z,57.90
2017-06-18T23:08:13.851Z,58.10
2017-06-18T23:10:41.377Z,58.70
2017-06-18T23:13:09.051Z,58.50
2017-06-18T23:15:36.563Z,57.30
2017-06-18T23:18:04.075Z,58.70
2017-06-18T23:20:31.671Z,59.50
2017-06-18T23:22:59.225Z,60.30
2017-06-18T23:25:26.831Z,59.70
2017-06-18T23:27:54.384Z,60.30
2017-06-18T23:30:21.919Z,60.50
2017-06-18T23:32:49.431Z,61.10
2017-06-18T23:35:16.999Z,59.60
2017-06-18T23:37:44.530Z,60.40
2017-06-18T23:40:12.300Z,60.50
2017-06-18T23:42:39.880Z,61.50
2017-06-18T23:45:07.724Z,61.60
2017-06-18T23:47:35.389Z,61.00
2017-06-18T23:50:02.957Z,61.20
2017-06-18T23:52:30.467Z,62.30
2017-06-18T23:54:57.976Z,62.00
2017-06-18T23:57:25.675Z,62.10
2017-06-18T23:59:54.085Z,61.80
